Main page
METAR-TAF:

METAR-TAF

Airports :

Skylark Field

Killeen, Texas, United States

latitude: 31-05N, longitude: 097-41W, elevation: 846 ft

Current weather observation

The report was made 50 minutes ago, at 01:56 UTC
Wind 5 mph from the North/Northwest
Temperature 37°F
Humidity 93%
Pressure 30.42 in. Hg
Visibility: 10 miles
Clear sky

METAR: KILE 110156Z AUTO 33004KT 10SM CLR 03/02 A3042 RMK AO2 SLP301 T00280017

Time: 20:46 (02:46 UTC)


TAF: missing

Weather observations and forecasts of more than 4000 airports (METAR and TAF reports).

The available stations are represented by yellow and red dots on the map.

Hover mouse over dot to see the name of the station.

Then click to see weather observations and forecasts.

To change the map : click on the green buttons with a black cross to zoom in, on the green button with a dash to zoom out, or on the green arrows for adjacent maps.


METAR-TAF: